Flight Track Log - Related Links

Times and Time Zones

All times are in EDT time to prevent confusion due to time zone crossing. See the TCF3494 flight status page for this flight to view local times or setup timezone preferences in your user account.

Time Position Orientation Groundspeed Altitude Reporting Facility
EDT Latitude Longitude Course Direction KTS MPH feet Rate Location/Type
Tue 07:02:46 PM 40.7500 -73.8333 299° West 143 165 1,800  Level New York TRACON
Tue 07:03:51 PM 40.7833 -73.7833 49° Northeast 273 314 3,600 2,647 Climbing New York TRACON
Tue 07:05:36 PM 40.8867 -73.8314 341° North 247 284 9,300 2,945 Climbing New York Center
Tue 07:06:36 PM 40.9267 -73.8964 309° West 241 277 11,700 2,773 Climbing New York Center
Tue 07:07:00 PM 41.0240 -74.4307 299° West  Level FlightAware Approximate
Tue 07:07:35 PM 41.0131 -73.9281 345° North 270 311 14,800  Level New York Center
Tue 07:08:00 PM 41.0659 -74.5314 299° West  Level FlightAware Approximate
Tue 07:08:36 PM 41.0875 -73.9564 344° North 296 341 14,900  Level New York Center
Tue 07:09:34 PM 41.1739 -73.9933 342° North 301 346 14,900  Level New York Center
Tue 07:10:34 PM 41.1656 -74.0675 262° West 200 230 14,900 298 Level New York Center
Tue 07:11:35 PM 41.1053 -74.1333 219° Southwest 233 268 15,500 496 Climbing New York Center
Tue 07:12:35 PM 41.1108 -74.2353 274° West 270 311 15,900 750 Climbing New York Center
Tue 07:13:35 PM 41.1175 -74.3625 274° West 311 358 17,000 1,450 Climbing New York Center
Tue 07:14:35 PM 41.1244 -74.4731 275° West 331 381 18,800 2,050 Climbing New York Center
Tue 07:15:35 PM 41.1306 -74.6083 273° West 336 387 21,100 1,934 Climbing New York Center
Tue 07:16:36 PM 41.1533 -74.7364 283° West 342 394 22,700 1,587 Climbing New York Center
Tue 07:17:36 PM 41.2056 -74.8553 300° West 352 405 24,300 1,436 Climbing New York Center
Tue 07:18:33 PM 41.2536 -74.9658 300° West 375 432 25,500 1,271 Climbing New York Center
Tue 07:19:34 PM 41.3078 -75.0878 301° West 380 437 26,800 1,339 Climbing New York Center
Tue 07:20:34 PM 41.3592 -75.2128 299° West 387 445 28,200 1,289 Climbing New York Center
Tue 07:21:35 PM 41.4150 -75.3381 301° West 387 445 29,400 1,091 Climbing New York Center
Tue 07:22:35 PM 41.4681 -75.4664 299° West 387 445 30,400 1,050 Climbing New York Center
Tue 07:23:35 PM 41.5086 -75.5994 292° West 387 445 31,500 1,091 Climbing New York Center
Tue 07:24:36 PM 41.5469 -75.7325 291° West 387 445 32,600 1,109 Climbing New York Center
Tue 07:25:34 PM 41.5850 -75.8656 291° West 382 440 33,700 966 Climbing New York Center
Tue 07:26:34 PM 41.6231 -75.9961 291° West 382 440 34,500 793 Climbing New York Center
Tue 07:27:35 PM 41.6608 -76.1269 291° West 382 440 35,300 744 Climbing New York Center
Tue 07:28:35 PM 41.7000 -76.2744 290° West 382 440 36,000 347 Climbing New York Center
Tue 07:29:36 PM 41.7394 -76.4083 292° West 382 440 36,000  Level New York Center
Tue 07:30:36 PM 41.7692 -76.5278 288° West 382 440 36,000  Level New York Center
Tue 07:32:39 PM 41.8503 -76.8139 291° West 372 428 36,000  Level Cleveland Center
Tue 07:33:39 PM 41.8878 -76.9458 291° West 377 434 36,000  Level Cleveland Center
Tue 07:34:39 PM 41.9233 -77.0778 290° West 377 434 36,000  Level Cleveland Center
Tue 07:35:39 PM 41.9586 -77.2156 289° West 383 441 36,000  Level Cleveland Center
Tue 07:36:39 PM 41.9958 -77.3506 290° West 383 441 36,000  Level Cleveland Center
Tue 07:37:39 PM 42.0306 -77.4800 290° West 383 441 36,000  Level Cleveland Center
Tue 07:38:39 PM 42.0608 -77.5933 290° West 369 425 36,000  Level Cleveland Center
Tue 07:39:39 PM 42.0933 -77.7206 289° West 363 418 36,000  Level Cleveland Center
Tue 07:40:39 PM 42.1256 -77.8450 289° West 363 418 36,000  Level Cleveland Center
Tue 07:41:39 PM 42.1597 -77.9697 290° West 363 418 36,000  Level Cleveland Center
Tue 07:42:39 PM 42.1917 -78.0972 289° West 363 418 36,000  Level Cleveland Center
Tue 07:43:39 PM 42.2233 -78.2222 289° West 363 418 36,000  Level Cleveland Center
Tue 07:44:39 PM 42.2572 -78.3444 291° West 363 418 36,000  Level Cleveland Center
Tue 07:45:39 PM 42.2886 -78.4697 289° West 358 412 36,000  Level Cleveland Center
Tue 07:46:39 PM 42.3200 -78.5894 290° West 358 412 36,000  Level Cleveland Center
Tue 07:47:39 PM 42.3514 -78.7147 289° West 358 412 36,000  Level Cleveland Center
Tue 07:48:39 PM 42.3825 -78.8347 289° West 353 406 36,000  Level Cleveland Center
Tue 07:49:39 PM 42.4156 -78.9717 288° West 353 406 36,000  Level Cleveland Center
Tue 07:50:39 PM 42.4444 -79.0947 288° West 348 400 36,000  Level Cleveland Center
Tue 07:51:39 PM 42.4769 -79.2039 292° West 348 400 36,000  Level Cleveland Center
Tue 07:52:39 PM 42.4950 -79.3331 281° West 343 395 36,000  Level Cleveland Center
Tue 07:53:39 PM 42.5006 -79.4594 273° West 343 395 36,000  Level Cleveland Center
Tue 07:54:39 PM 42.5058 -79.5861 273° West 338 389 36,000  Level Cleveland Center
Tue 07:55:39 PM 42.5133 -79.7156 275° West 338 389 36,000  Level Cleveland Center
Tue 07:56:39 PM 42.5203 -79.8394 274° West 338 389 36,000  Level Cleveland Center
Tue 07:57:39 PM 42.5275 -79.9689 274° West 338 389 36,000  Level Cleveland Center
Tue 07:58:39 PM 42.5281 -80.1100 270° West 343 395 36,000  Level Cleveland Center
Tue 07:59:39 PM 42.5347 -80.2394 274° West 348 400 36,000  Level Cleveland Center
Tue 08:00:39 PM 42.5414 -80.3661 274° West 343 395 36,000  Level Cleveland Center
Tue 08:01:39 PM 42.5456 -80.4958 273° West 348 400 36,000  Level Cleveland Center
Tue 08:02:39 PM 42.5497 -80.6225 273° West 341 392 36,000  Level Cleveland Center
Tue 08:03:39 PM 42.5539 -80.7494 273° West 351 404 36,000  Level Cleveland Center
Tue 08:04:39 PM 42.5597 -80.8764 274° West 345 397 36,000  Level Cleveland Center
Tue 08:05:39 PM 42.5636 -81.0061 272° West 345 397 36,000  Level Cleveland Center
Tue 08:06:39 PM 42.5694 -81.1331 274° West 345 397 36,000  Level Cleveland Center
Tue 08:07:39 PM 42.5728 -81.2542 272° West 350 403 36,000  Level Cleveland Center
Tue 08:08:39 PM 42.5761 -81.3839 272° West 343 395 36,000  Level Cleveland Center
Tue 08:09:39 PM 42.5919 -81.5111 280° West 349 402 36,000  Level Cleveland Center
Tue 08:10:39 PM 42.6158 -81.6411 284° West 354 407 36,000  Level Cleveland Center
Tue 08:11:39 PM 42.6394 -81.7686 284° West 354 407 36,000  Level Cleveland Center
Tue 08:12:39 PM 42.6631 -81.9158 282° West 354 407 36,000  Level Cleveland Center
Tue 08:13:39 PM 42.6844 -82.0433 283° West 359 413 36,000  Level Cleveland Center
Tue 08:14:39 PM 42.7078 -82.1711 284° West 354 407 36,000  Level Cleveland Center
Tue 08:15:39 PM 42.7308 -82.3017 284° West 354 407 36,000  Level Cleveland Center
Tue 08:16:39 PM 42.7539 -82.4294 284° West 354 407 36,000  Level Cleveland Center
Tue 08:17:39 PM 42.7725 -82.5631 281° West 354 407 36,000  Level Cleveland Center
Tue 08:18:39 PM 42.7953 -82.6911 284° West 354 407 36,000  Level Cleveland Center
Tue 08:19:39 PM 42.8178 -82.8250 283° West 354 407 36,000  Level Cleveland Center
Tue 08:20:39 PM 42.8403 -82.9533 283° West 354 407 36,000 -500 Level Cleveland Center
Tue 08:21:39 PM 42.8600 -83.0928 281° West 354 407 35,000 -1,000 Descending Cleveland Center
Tue 08:22:39 PM 42.8819 -83.2297 282° West 364 419 34,000 -950 Descending Cleveland Center
Tue 08:23:39 PM 42.9078 -83.3753 284° West 377 434 33,100 -1,050 Descending Cleveland Center
Tue 08:24:39 PM 42.9292 -83.5208 281° West 388 447 31,900 -1,200 Descending Cleveland Center
Tue 08:25:39 PM 42.9508 -83.6553 282° West 395 455 30,700 -950 Descending Cleveland Center
Tue 08:26:39 PM 42.9592 -83.8033 274° West 395 455 30,000 -350 Descending Cleveland Center
Tue 08:27:39 PM 42.9447 -83.9472 262° West 389 448 30,000  Level Cleveland Center
Tue 08:28:39 PM 42.9319 -84.0939 263° West 384 442 30,000  Level Cleveland Center
Tue 08:29:39 PM 42.9169 -84.2406 262° West 384 442 30,000  Level Cleveland Center
Tue 08:31:33 PM 42.8911 -84.5156 263° West 395 455 30,000  Level Chicago Center
Tue 08:32:35 PM 42.8769 -84.6625 263° West 392 451 30,000  Level Chicago Center
Tue 08:33:37 PM 42.8611 -84.8039 261° West 380 437 30,000  Level Chicago Center
Tue 08:34:39 PM 42.8444 -84.9603 262° West 352 405 30,000  Level Chicago Center
Tue 08:35:41 PM 42.8311 -85.0917 262° West 352 405 30,000 -145 Level Chicago Center
Tue 08:36:43 PM 42.8164 -85.2233 261° West 352 405 29,700 -677 Descending Chicago Center
Tue 08:37:45 PM 42.8019 -85.3519 261° West 347 399 28,600 -823 Descending Chicago Center
Tue 08:38:47 PM 42.7872 -85.4808 261° West 345 397 28,000 -290 Descending Chicago Center
Tue 08:39:49 PM 42.7669 -85.6069 258° West 341 392 28,000 -290 Level Chicago Center
Tue 08:40:51 PM 42.7394 -85.7581 256° West 341 392 27,400 -1,161 Descending Chicago Center
Tue 08:41:53 PM 42.7172 -85.8833 256° West 341 392 25,600 -1,694 Descending Chicago Center
Tue 08:42:55 PM 42.6939 -86.0056 255° West 335 386 23,900 -1,645 Descending Chicago Center
Tue 08:43:57 PM 42.6728 -86.1244 256° West 327 376 22,200 -1,694 Descending Chicago Center
Tue 08:44:59 PM 42.6508 -86.2464 256° West 327 376 20,400 -1,694 Descending Chicago Center
Tue 08:46:01 PM 42.6256 -86.3731 255° West 343 395 18,700 -1,403 Descending Chicago Center
Tue 08:47:03 PM 42.6022 -86.4986 256° West 343 395 17,500 -1,366 Descending Chicago Center
Tue 08:48:04 PM 42.5806 -86.6178 256° West 328 377 15,900 -1,610 Descending Chicago Center
Tue 08:49:06 PM 42.5517 -86.7581 254° West 324 373 14,200 -1,452 Descending Chicago Center
Tue 08:50:08 PM 42.5222 -86.8697 250° West 319 367 12,900 -1,306 Descending Chicago Center
Tue 08:51:10 PM 42.4917 -86.9808 250° West 316 364 11,500 -1,355 Descending Chicago Center
Tue 08:52:12 PM 42.4589 -87.0942 249° West 320 368 10,100 -726 Descending Chicago Center
Tue 08:53:14 PM 42.4286 -87.2083 250° West 324 373 10,000 -48 Descending Chicago Center
Tue 08:54:16 PM 42.3969 -87.3228 249° West 324 373 10,000  Level Chicago Center
Tue 08:55:18 PM 42.3642 -87.4456 250° West 325 374 10,000  Level Chicago Center
Tue 08:56:20 PM 42.3239 -87.5519 243° Southwest 324 373 10,000  Level Chicago Center
Tue 08:57:22 PM 42.2372 -87.6431 218° Southwest 331 381 10,000  Level Chicago Center
Tue 08:58:24 PM 42.1678 -87.7161 218° Southwest 322 371 10,000 -581 Level Chicago Center
Tue 08:59:26 PM 42.1000 -87.7833 216° Southwest 268 308 8,800 -1,448 Descending Chicago TRACON
Tue 09:00:20 PM 42.0833 -87.8667 255° West 257 296 7,200 -895 Descending Chicago TRACON
Tue 09:01:20 PM 42.0500 -87.9333 236° Southwest 214 246 7,100 -100 Descending Chicago TRACON
Tue 09:02:20 PM 42.0500 -88.0167 270° West 182 209 7,000 -850 Descending Chicago TRACON
Tue 09:03:20 PM 42.0500 -88.0833 270° West 187 215 5,400 -1,537 Descending Chicago TRACON
Tue 09:04:21 PM 42.0333 -88.1333 246° West 210 242 3,900 -1,190 Descending Chicago TRACON
Tue 09:05:21 PM 42.0000 -88.0667 124° Southeast 185 213 3,000 -900 Descending Chicago TRACON

Login

Don't have an account? Register now (free) for customized features, flight alerts, and more!